sensor_id;sensor_type;location;lat;lon;timestamp;P1;durP1;ratioP1;P2;durP2;ratioP2
53903;SDS011;39812;52.430;16.936;2024-01-30T00:01:17;26.67;;;12.65;;
53903;SDS011;39812;52.430;16.936;2024-01-30T00:03:42;30.55;;;11.38;;
53903;SDS011;39812;52.430;16.936;2024-01-30T00:06:08;27.83;;;11.43;;
53903;SDS011;39812;52.430;16.936;2024-01-30T00:08:34;30.83;;;12.75;;
53903;SDS011;39812;52.430;16.936;2024-01-30T00:11:00;28.27;;;11.43;;
53903;SDS011;39812;52.430;16.936;2024-01-30T00:13:26;32.53;;;12.55;;
53903;SDS011;39812;52.430;16.936;2024-01-30T00:15:52;31.85;;;12.25;;
53903;SDS011;39812;52.430;16.936;2024-01-30T00:18:17;25.70;;;11.48;;
53903;SDS011;39812;52.430;16.936;2024-01-30T00:20:43;24.98;;;11.00;;
53903;SDS011;39812;52.430;16.936;2024-01-30T00:23:09;31.13;;;13.05;;
53903;SDS011;39812;52.430;16.936;2024-01-30T00:25:35;35.03;;;11.73;;
53903;SDS011;39812;52.430;16.936;2024-01-30T00:28:01;31.60;;;11.32;;
53903;SDS011;39812;52.430;16.936;2024-01-30T00:30:26;33.92;;;12.70;;
53903;SDS011;39812;52.430;16.936;2024-01-30T00:32:53;25.08;;;11.07;;
53903;SDS011;39812;52.430;16.936;2024-01-30T00:35:18;34.25;;;13.63;;
53903;SDS011;39812;52.430;16.936;2024-01-30T00:37:44;26.80;;;11.80;;
53903;SDS011;39812;52.430;16.936;2024-01-30T00:40:10;29.58;;;13.57;;
53903;SDS011;39812;52.430;16.936;2024-01-30T00:42:40;41.38;;;13.75;;
53903;SDS011;39812;52.430;16.936;2024-01-30T00:45:11;32.92;;;12.60;;
53903;SDS011;39812;52.430;16.936;2024-01-30T00:47:37;29.33;;;12.65;;
53903;SDS011;39812;52.430;16.936;2024-01-30T00:50:03;36.65;;;13.35;;
53903;SDS011;39812;52.430;16.936;2024-01-30T00:52:30;27.00;;;12.43;;
53903;SDS011;39812;52.430;16.936;2024-01-30T00:54:55;31.90;;;12.23;;
53903;SDS011;39812;52.430;16.936;2024-01-30T00:57:21;31.00;;;11.00;;
53903;SDS011;39812;52.430;16.936;2024-01-30T00:59:48;27.23;;;11.32;;
53903;SDS011;39812;52.430;16.936;2024-01-30T01:02:13;27.88;;;11.63;;
53903;SDS011;39812;52.430;16.936;2024-01-30T01:04:40;29.50;;;11.50;;
53903;SDS011;39812;52.430;16.936;2024-01-30T01:07:06;32.03;;;11.50;;
53903;SDS011;39812;52.430;16.936;2024-01-30T01:09:31;30.35;;;11.75;;
53903;SDS011;39812;52.430;16.936;2024-01-30T01:11:57;27.65;;;12.10;;
53903;SDS011;39812;52.430;16.936;2024-01-30T01:14:23;32.13;;;11.68;;
53903;SDS011;39812;52.430;16.936;2024-01-30T01:16:48;25.23;;;11.93;;
53903;SDS011;39812;52.430;16.936;2024-01-30T01:19:14;31.58;;;12.18;;
53903;SDS011;39812;52.430;16.936;2024-01-30T01:21:40;25.83;;;11.05;;
53903;SDS011;39812;52.430;16.936;2024-01-30T01:24:06;24.75;;;11.48;;
53903;SDS011;39812;52.430;16.936;2024-01-30T01:26:32;29.25;;;12.65;;
53903;SDS011;39812;52.430;16.936;2024-01-30T01:28:57;31.27;;;11.13;;
53903;SDS011;39812;52.430;16.936;2024-01-30T01:31:23;24.30;;;11.48;;
53903;SDS011;39812;52.430;16.936;2024-01-30T01:33:49;29.67;;;10.43;;
53903;SDS011;39812;52.430;16.936;2024-01-30T01:36:15;25.83;;;11.70;;
53903;SDS011;39812;52.430;16.936;2024-01-30T01:38:41;31.23;;;11.73;;
53903;SDS011;39812;52.430;16.936;2024-01-30T01:41:07;28.73;;;11.98;;
53903;SDS011;39812;52.430;16.936;2024-01-30T01:43:33;22.58;;;10.82;;
53903;SDS011;39812;52.430;16.936;2024-01-30T01:45:59;30.67;;;12.30;;
53903;SDS011;39812;52.430;16.936;2024-01-30T01:48:25;32.83;;;13.07;;
53903;SDS011;39812;52.430;16.936;2024-01-30T01:50:51;29.27;;;11.27;;
53903;SDS011;39812;52.430;16.936;2024-01-30T01:53:17;25.63;;;11.73;;
53903;SDS011;39812;52.430;16.936;2024-01-30T01:55:43;29.40;;;11.70;;
53903;SDS011;39812;52.430;16.936;2024-01-30T01:58:09;28.17;;;12.13;;
53903;SDS011;39812;52.430;16.936;2024-01-30T02:00:37;23.88;;;11.40;;
53903;SDS011;39812;52.430;16.936;2024-01-30T02:03:06;26.05;;;11.50;;
53903;SDS011;39812;52.430;16.936;2024-01-30T02:05:33;25.80;;;10.23;;
53903;SDS011;39812;52.430;16.936;2024-01-30T02:07:59;25.55;;;11.18;;
53903;SDS011;39812;52.430;16.936;2024-01-30T02:10:24;31.35;;;13.82;;
53903;SDS011;39812;52.430;16.936;2024-01-30T02:12:50;30.17;;;12.32;;
53903;SDS011;39812;52.430;16.936;2024-01-30T02:15:15;24.95;;;11.45;;
53903;SDS011;39812;52.430;16.936;2024-01-30T02:17:41;30.45;;;12.13;;
53903;SDS011;39812;52.430;16.936;2024-01-30T02:20:07;33.30;;;12.40;;
53903;SDS011;39812;52.430;16.936;2024-01-30T02:22:33;32.05;;;12.13;;
53903;SDS011;39812;52.430;16.936;2024-01-30T02:25:01;25.50;;;11.07;;
53903;SDS011;39812;52.430;16.936;2024-01-30T02:27:26;30.05;;;11.60;;
53903;SDS011;39812;52.430;16.936;2024-01-30T02:29:52;37.63;;;12.60;;
53903;SDS011;39812;52.430;16.936;2024-01-30T02:32:18;25.85;;;11.50;;
53903;SDS011;39812;52.430;16.936;2024-01-30T02:34:44;27.88;;;11.68;;
53903;SDS011;39812;52.430;16.936;2024-01-30T02:37:10;29.33;;;12.23;;
53903;SDS011;39812;52.430;16.936;2024-01-30T02:39:36;27.17;;;11.65;;
53903;SDS011;39812;52.430;16.936;2024-01-30T02:42:02;27.58;;;11.40;;
53903;SDS011;39812;52.430;16.936;2024-01-30T02:44:28;24.25;;;10.43;;
53903;SDS011;39812;52.430;16.936;2024-01-30T02:46:53;25.73;;;10.10;;
53903;SDS011;39812;52.430;16.936;2024-01-30T02:49:20;27.20;;;10.45;;
53903;SDS011;39812;52.430;16.936;2024-01-30T02:51:46;19.05;;;9.07;;
53903;SDS011;39812;52.430;16.936;2024-01-30T02:54:12;22.05;;;10.43;;
53903;SDS011;39812;52.430;16.936;2024-01-30T02:56:37;20.73;;;10.68;;
53903;SDS011;39812;52.430;16.936;2024-01-30T02:59:03;31.63;;;10.60;;
53903;SDS011;39812;52.430;16.936;2024-01-30T03:01:28;25.55;;;10.57;;
53903;SDS011;39812;52.430;16.936;2024-01-30T03:03:54;27.02;;;10.18;;
53903;SDS011;39812;52.430;16.936;2024-01-30T03:06:20;23.02;;;10.27;;
53903;SDS011;39812;52.430;16.936;2024-01-30T03:08:47;26.88;;;10.65;;
53903;SDS011;39812;52.430;16.936;2024-01-30T03:11:13;25.23;;;10.10;;
53903;SDS011;39812;52.430;16.936;2024-01-30T03:13:39;18.90;;;9.07;;
53903;SDS011;39812;52.430;16.936;2024-01-30T03:16:05;23.73;;;9.38;;
53903;SDS011;39812;52.430;16.936;2024-01-30T03:18:31;25.15;;;9.25;;
53903;SDS011;39812;52.430;16.936;2024-01-30T03:20:57;24.60;;;10.27;;
53903;SDS011;39812;52.430;16.936;2024-01-30T03:23:22;21.40;;;8.90;;
53903;SDS011;39812;52.430;16.936;2024-01-30T03:25:48;20.55;;;9.95;;
53903;SDS011;39812;52.430;16.936;2024-01-30T03:28:13;23.98;;;10.60;;
53903;SDS011;39812;52.430;16.936;2024-01-30T03:30:39;23.92;;;10.38;;
53903;SDS011;39812;52.430;16.936;2024-01-30T03:33:05;27.38;;;11.55;;
53903;SDS011;39812;52.430;16.936;2024-01-30T03:35:31;22.95;;;10.23;;
53903;SDS011;39812;52.430;16.936;2024-01-30T03:37:57;21.95;;;10.63;;
53903;SDS011;39812;52.430;16.936;2024-01-30T03:40:22;28.55;;;9.88;;
53903;SDS011;39812;52.430;16.936;2024-01-30T03:42:48;21.35;;;10.43;;
53903;SDS011;39812;52.430;16.936;2024-01-30T03:45:14;26.95;;;11.45;;
53903;SDS011;39812;52.430;16.936;2024-01-30T03:47:40;17.48;;;9.02;;
53903;SDS011;39812;52.430;16.936;2024-01-30T03:50:08;25.45;;;10.90;;
53903;SDS011;39812;52.430;16.936;2024-01-30T03:52:34;16.73;;;8.70;;
53903;SDS011;39812;52.430;16.936;2024-01-30T03:55:00;22.63;;;9.27;;
53903;SDS011;39812;52.430;16.936;2024-01-30T03:57:26;31.17;;;10.25;;
53903;SDS011;39812;52.430;16.936;2024-01-30T03:59:51;25.63;;;11.40;;
53903;SDS011;39812;52.430;16.936;2024-01-30T04:02:17;25.92;;;11.25;;
53903;SDS011;39812;52.430;16.936;2024-01-30T04:04:43;32.15;;;11.13;;
53903;SDS011;39812;52.430;16.936;2024-01-30T04:07:08;26.00;;;8.57;;
53903;SDS011;39812;52.430;16.936;2024-01-30T04:09:34;27.50;;;11.23;;
53903;SDS011;39812;52.430;16.936;2024-01-30T04:12:00;27.30;;;10.52;;
53903;SDS011;39812;52.430;16.936;2024-01-30T04:14:27;25.63;;;10.20;;
53903;SDS011;39812;52.430;16.936;2024-01-30T04:16:53;22.98;;;10.52;;
53903;SDS011;39812;52.430;16.936;2024-01-30T04:19:18;20.45;;;9.50;;
53903;SDS011;39812;52.430;16.936;2024-01-30T04:21:44;28.95;;;11.48;;
53903;SDS011;39812;52.430;16.936;2024-01-30T04:24:10;25.88;;;10.85;;
53903;SDS011;39812;52.430;16.936;2024-01-30T04:26:35;26.75;;;10.00;;
53903;SDS011;39812;52.430;16.936;2024-01-30T04:29:01;27.60;;;10.55;;
53903;SDS011;39812;52.430;16.936;2024-01-30T04:31:27;24.77;;;9.43;;
53903;SDS011;39812;52.430;16.936;2024-01-30T04:33:53;26.35;;;10.73;;
53903;SDS011;39812;52.430;16.936;2024-01-30T04:36:18;20.70;;;9.32;;
53903;SDS011;39812;52.430;16.936;2024-01-30T04:38:44;24.90;;;10.75;;
53903;SDS011;39812;52.430;16.936;2024-01-30T04:41:10;22.25;;;10.00;;
53903;SDS011;39812;52.430;16.936;2024-01-30T04:43:36;21.10;;;9.57;;
53903;SDS011;39812;52.430;16.936;2024-01-30T04:46:03;27.10;;;9.75;;
53903;SDS011;39812;52.430;16.936;2024-01-30T04:48:29;20.00;;;9.30;;
53903;SDS011;39812;52.430;16.936;2024-01-30T04:50:54;17.13;;;8.90;;
53903;SDS011;39812;52.430;16.936;2024-01-30T04:53:21;22.92;;;9.68;;
53903;SDS011;39812;52.430;16.936;2024-01-30T04:55:47;24.33;;;9.80;;
53903;SDS011;39812;52.430;16.936;2024-01-30T04:58:12;19.65;;;9.40;;
53903;SDS011;39812;52.430;16.936;2024-01-30T05:00:38;15.65;;;8.02;;
53903;SDS011;39812;52.430;16.936;2024-01-30T05:03:04;27.27;;;10.85;;
53903;SDS011;39812;52.430;16.936;2024-01-30T05:05:30;19.95;;;9.45;;
53903;SDS011;39812;52.430;16.936;2024-01-30T05:07:55;26.27;;;10.73;;
53903;SDS011;39812;52.430;16.936;2024-01-30T05:10:21;17.48;;;8.73;;
53903;SDS011;39812;52.430;16.936;2024-01-30T05:12:47;22.25;;;8.68;;
53903;SDS011;39812;52.430;16.936;2024-01-30T05:15:12;17.35;;;9.35;;
53903;SDS011;39812;52.430;16.936;2024-01-30T05:17:38;25.25;;;9.88;;
53903;SDS011;39812;52.430;16.936;2024-01-30T05:20:04;25.85;;;11.07;;
53903;SDS011;39812;52.430;16.936;2024-01-30T05:22:31;25.35;;;10.32;;
53903;SDS011;39812;52.430;16.936;2024-01-30T05:24:57;20.75;;;8.55;;
53903;SDS011;39812;52.430;16.936;2024-01-30T05:27:22;28.80;;;10.75;;
53903;SDS011;39812;52.430;16.936;2024-01-30T05:29:48;23.75;;;9.45;;
53903;SDS011;39812;52.430;16.936;2024-01-30T05:32:14;18.83;;;9.48;;
53903;SDS011;39812;52.430;16.936;2024-01-30T05:34:40;21.77;;;10.13;;
53903;SDS011;39812;52.430;16.936;2024-01-30T05:37:06;25.10;;;10.48;;
53903;SDS011;39812;52.430;16.936;2024-01-30T05:39:31;21.92;;;9.15;;
53903;SDS011;39812;52.430;16.936;2024-01-30T05:41:58;27.08;;;9.43;;
53903;SDS011;39812;52.430;16.936;2024-01-30T05:44:24;27.65;;;9.50;;
53903;SDS011;39812;52.430;16.936;2024-01-30T05:46:50;27.73;;;9.40;;
53903;SDS011;39812;52.430;16.936;2024-01-30T05:49:15;18.73;;;8.65;;
53903;SDS011;39812;52.430;16.936;2024-01-30T05:51:41;17.95;;;8.77;;
53903;SDS011;39812;52.430;16.936;2024-01-30T05:54:07;21.65;;;8.13;;
53903;SDS011;39812;52.430;16.936;2024-01-30T05:56:32;17.75;;;9.43;;
53903;SDS011;39812;52.430;16.936;2024-01-30T05:58:58;22.00;;;9.43;;
53903;SDS011;39812;52.430;16.936;2024-01-30T06:01:24;22.73;;;8.45;;
53903;SDS011;39812;52.430;16.936;2024-01-30T06:03:50;30.27;;;10.10;;
53903;SDS011;39812;52.430;16.936;2024-01-30T06:06:16;29.30;;;9.23;;
53903;SDS011;39812;52.430;16.936;2024-01-30T06:08:41;20.05;;;8.45;;
53903;SDS011;39812;52.430;16.936;2024-01-30T06:11:09;21.08;;;9.15;;
53903;SDS011;39812;52.430;16.936;2024-01-30T06:13:36;19.00;;;9.43;;
53903;SDS011;39812;52.430;16.936;2024-01-30T06:16:02;23.45;;;8.73;;
53903;SDS011;39812;52.430;16.936;2024-01-30T06:18:28;20.58;;;8.73;;
53903;SDS011;39812;52.430;16.936;2024-01-30T06:20:56;22.73;;;8.77;;
53903;SDS011;39812;52.430;16.936;2024-01-30T06:23:22;24.38;;;8.95;;
53903;SDS011;39812;52.430;16.936;2024-01-30T06:25:48;23.52;;;10.25;;
53903;SDS011;39812;52.430;16.936;2024-01-30T06:28:14;22.45;;;10.93;;
53903;SDS011;39812;52.430;16.936;2024-01-30T06:30:39;28.58;;;10.20;;
53903;SDS011;39812;52.430;16.936;2024-01-30T06:33:05;19.85;;;8.95;;
53903;SDS011;39812;52.430;16.936;2024-01-30T06:35:31;19.52;;;9.23;;
53903;SDS011;39812;52.430;16.936;2024-01-30T06:37:57;19.15;;;8.88;;
53903;SDS011;39812;52.430;16.936;2024-01-30T06:40:23;20.23;;;10.18;;
53903;SDS011;39812;52.430;16.936;2024-01-30T06:42:48;21.17;;;9.50;;
53903;SDS011;39812;52.430;16.936;2024-01-30T06:45:15;21.88;;;11.55;;
53903;SDS011;39812;52.430;16.936;2024-01-30T06:47:41;21.75;;;9.88;;
53903;SDS011;39812;52.430;16.936;2024-01-30T06:50:06;24.55;;;9.95;;
53903;SDS011;39812;52.430;16.936;2024-01-30T06:52:32;26.73;;;11.35;;
53903;SDS011;39812;52.430;16.936;2024-01-30T06:54:58;22.13;;;10.30;;
53903;SDS011;39812;52.430;16.936;2024-01-30T06:57:25;24.80;;;10.40;;
53903;SDS011;39812;52.430;16.936;2024-01-30T06:59:53;25.67;;;12.10;;
53903;SDS011;39812;52.430;16.936;2024-01-30T07:02:18;27.25;;;10.57;;
53903;SDS011;39812;52.430;16.936;2024-01-30T07:04:44;26.63;;;11.02;;
53903;SDS011;39812;52.430;16.936;2024-01-30T07:07:10;25.85;;;11.32;;
53903;SDS011;39812;52.430;16.936;2024-01-30T07:09:38;31.83;;;11.95;;
53903;SDS011;39812;52.430;16.936;2024-01-30T07:12:04;23.17;;;10.30;;
53903;SDS011;39812;52.430;16.936;2024-01-30T07:14:31;21.42;;;9.13;;
53903;SDS011;39812;52.430;16.936;2024-01-30T07:16:56;26.20;;;10.57;;
53903;SDS011;39812;52.430;16.936;2024-01-30T07:19:22;24.33;;;10.15;;
53903;SDS011;39812;52.430;16.936;2024-01-30T07:21:48;27.05;;;10.65;;
53903;SDS011;39812;52.430;16.936;2024-01-30T07:24:14;24.00;;;11.18;;
53903;SDS011;39812;52.430;16.936;2024-01-30T07:26:39;29.40;;;12.10;;
53903;SDS011;39812;52.430;16.936;2024-01-30T07:29:06;25.75;;;10.40;;
53903;SDS011;39812;52.430;16.936;2024-01-30T07:31:31;19.13;;;9.15;;
53903;SDS011;39812;52.430;16.936;2024-01-30T07:33:57;23.98;;;9.80;;
53903;SDS011;39812;52.430;16.936;2024-01-30T07:36:22;20.75;;;9.23;;
53903;SDS011;39812;52.430;16.936;2024-01-30T07:38:48;21.52;;;10.40;;
53903;SDS011;39812;52.430;16.936;2024-01-30T07:41:14;23.17;;;10.90;;
53903;SDS011;39812;52.430;16.936;2024-01-30T07:43:40;20.02;;;9.48;;
53903;SDS011;39812;52.430;16.936;2024-01-30T07:46:06;19.88;;;9.25;;
53903;SDS011;39812;52.430;16.936;2024-01-30T07:48:32;22.33;;;9.05;;
53903;SDS011;39812;52.430;16.936;2024-01-30T07:50:59;27.48;;;10.20;;
53903;SDS011;39812;52.430;16.936;2024-01-30T07:53:25;23.30;;;9.30;;
53903;SDS011;39812;52.430;16.936;2024-01-30T07:55:52;20.48;;;9.30;;
53903;SDS011;39812;52.430;16.936;2024-01-30T07:58:17;24.85;;;9.45;;
53903;SDS011;39812;52.430;16.936;2024-01-30T08:00:44;21.77;;;10.32;;
53903;SDS011;39812;52.430;16.936;2024-01-30T08:03:10;23.25;;;9.50;;
53903;SDS011;39812;52.430;16.936;2024-01-30T08:05:35;32.00;;;10.57;;
53903;SDS011;39812;52.430;16.936;2024-01-30T08:08:01;27.13;;;9.50;;
53903;SDS011;39812;52.430;16.936;2024-01-30T08:10:26;26.63;;;9.80;;
53903;SDS011;39812;52.430;16.936;2024-01-30T08:12:52;24.85;;;10.27;;
53903;SDS011;39812;52.430;16.936;2024-01-30T08:15:17;20.58;;;9.85;;
53903;SDS011;39812;52.430;16.936;2024-01-30T08:17:43;20.48;;;9.27;;
53903;SDS011;39812;52.430;16.936;2024-01-30T08:20:10;20.00;;;8.57;;
53903;SDS011;39812;52.430;16.936;2024-01-30T08:22:38;16.60;;;9.25;;
53903;SDS011;39812;52.430;16.936;2024-01-30T08:25:05;16.38;;;8.43;;
53903;SDS011;39812;52.430;16.936;2024-01-30T08:27:31;17.83;;;8.50;;
53903;SDS011;39812;52.430;16.936;2024-01-30T08:29:57;22.88;;;7.85;;
53903;SDS011;39812;52.430;16.936;2024-01-30T08:32:22;18.35;;;7.50;;
53903;SDS011;39812;52.430;16.936;2024-01-30T08:34:49;20.00;;;9.20;;
53903;SDS011;39812;52.430;16.936;2024-01-30T08:37:14;19.92;;;9.13;;
53903;SDS011;39812;52.430;16.936;2024-01-30T08:39:41;18.95;;;7.85;;
53903;SDS011;39812;52.430;16.936;2024-01-30T08:42:07;19.98;;;8.32;;
53903;SDS011;39812;52.430;16.936;2024-01-30T08:44:33;16.55;;;8.02;;
53903;SDS011;39812;52.430;16.936;2024-01-30T08:46:58;20.05;;;8.48;;
53903;SDS011;39812;52.430;16.936;2024-01-30T08:49:24;26.85;;;8.93;;
53903;SDS011;39812;52.430;16.936;2024-01-30T08:51:49;19.17;;;8.25;;
53903;SDS011;39812;52.430;16.936;2024-01-30T08:54:15;16.45;;;8.50;;
53903;SDS011;39812;52.430;16.936;2024-01-30T08:56:41;16.17;;;7.95;;
53903;SDS011;39812;52.430;16.936;2024-01-30T08:59:07;26.73;;;9.70;;
53903;SDS011;39812;52.430;16.936;2024-01-30T09:01:33;22.33;;;9.15;;
53903;SDS011;39812;52.430;16.936;2024-01-30T09:03:58;19.27;;;9.00;;
53903;SDS011;39812;52.430;16.936;2024-01-30T09:06:24;19.35;;;9.05;;
53903;SDS011;39812;52.430;16.936;2024-01-30T09:08:52;19.15;;;8.90;;
53903;SDS011;39812;52.430;16.936;2024-01-30T09:11:18;19.02;;;8.70;;
53903;SDS011;39812;52.430;16.936;2024-01-30T09:13:44;22.98;;;9.13;;
53903;SDS011;39812;52.430;16.936;2024-01-30T09:16:10;17.27;;;8.32;;
53903;SDS011;39812;52.430;16.936;2024-01-30T09:18:35;22.65;;;10.65;;
53903;SDS011;39812;52.430;16.936;2024-01-30T09:21:01;20.95;;;8.95;;
53903;SDS011;39812;52.430;16.936;2024-01-30T09:23:27;22.02;;;9.45;;
53903;SDS011;39812;52.430;16.936;2024-01-30T09:25:53;19.40;;;9.57;;
53903;SDS011;39812;52.430;16.936;2024-01-30T09:28:19;23.23;;;9.30;;
53903;SDS011;39812;52.430;16.936;2024-01-30T09:30:45;21.92;;;9.60;;
53903;SDS011;39812;52.430;16.936;2024-01-30T09:33:10;21.73;;;8.45;;
53903;SDS011;39812;52.430;16.936;2024-01-30T09:35:36;21.35;;;8.65;;
53903;SDS011;39812;52.430;16.936;2024-01-30T09:38:02;18.58;;;9.63;;
53903;SDS011;39812;52.430;16.936;2024-01-30T09:40:28;20.75;;;9.07;;
53903;SDS011;39812;52.430;16.936;2024-01-30T09:42:54;18.27;;;8.13;;
53903;SDS011;39812;52.430;16.936;2024-01-30T09:45:23;21.30;;;9.27;;
53903;SDS011;39812;52.430;16.936;2024-01-30T09:47:50;16.17;;;8.63;;
53903;SDS011;39812;52.430;16.936;2024-01-30T09:50:16;18.70;;;8.43;;
53903;SDS011;39812;52.430;16.936;2024-01-30T09:52:45;18.20;;;8.75;;
53903;SDS011;39812;52.430;16.936;2024-01-30T09:55:12;25.45;;;9.27;;
53903;SDS011;39812;52.430;16.936;2024-01-30T09:57:38;19.02;;;8.77;;
53903;SDS011;39812;52.430;16.936;2024-01-30T10:00:04;18.08;;;8.65;;
53903;SDS011;39812;52.430;16.936;2024-01-30T10:02:33;28.52;;;10.40;;
53903;SDS011;39812;52.430;16.936;2024-01-30T10:04:58;19.52;;;9.13;;
53903;SDS011;39812;52.430;16.936;2024-01-30T10:07:25;19.25;;;8.55;;
53903;SDS011;39812;52.430;16.936;2024-01-30T10:09:50;17.98;;;8.48;;
53903;SDS011;39812;52.430;16.936;2024-01-30T10:12:16;14.80;;;7.88;;
53903;SDS011;39812;52.430;16.936;2024-01-30T10:14:42;17.95;;;9.35;;
53903;SDS011;39812;52.430;16.936;2024-01-30T10:17:08;18.95;;;10.15;;
53903;SDS011;39812;52.430;16.936;2024-01-30T10:19:38;18.77;;;8.20;;
53903;SDS011;39812;52.430;16.936;2024-01-30T10:22:04;14.98;;;8.75;;
53903;SDS011;39812;52.430;16.936;2024-01-30T10:24:30;15.95;;;9.07;;
53903;SDS011;39812;52.430;16.936;2024-01-30T10:26:56;21.90;;;10.10;;
53903;SDS011;39812;52.430;16.936;2024-01-30T10:29:23;21.27;;;9.80;;
53903;SDS011;39812;52.430;16.936;2024-01-30T10:32:02;25.25;;;9.73;;
53903;SDS011;39812;52.430;16.936;2024-01-30T10:34:29;19.85;;;11.50;;
53903;SDS011;39812;52.430;16.936;2024-01-30T10:37:07;21.85;;;10.38;;
53903;SDS011;39812;52.430;16.936;2024-01-30T10:39:44;24.63;;;11.32;;
53903;SDS011;39812;52.430;16.936;2024-01-30T10:42:14;23.10;;;10.25;;
53903;SDS011;39812;52.430;16.936;2024-01-30T10:47:25;15.32;;;6.97;;
53903;SDS011;39812;52.430;16.936;2024-01-30T10:49:52;18.98;;;9.48;;
53903;SDS011;39812;52.430;16.936;2024-01-30T10:52:19;21.00;;;9.40;;
53903;SDS011;39812;52.430;16.936;2024-01-30T10:54:46;21.23;;;9.43;;
53903;SDS011;39812;52.430;16.936;2024-01-30T10:57:12;20.17;;;8.55;;
53903;SDS011;39812;52.430;16.936;2024-01-30T10:59:38;20.02;;;8.57;;
53903;SDS011;39812;52.430;16.936;2024-01-30T11:02:04;18.60;;;8.35;;
53903;SDS011;39812;52.430;16.936;2024-01-30T11:04:37;22.05;;;9.27;;
53903;SDS011;39812;52.430;16.936;2024-01-30T11:07:15;16.67;;;8.75;;
53903;SDS011;39812;52.430;16.936;2024-01-30T11:09:52;20.83;;;9.15;;
53903;SDS011;39812;52.430;16.936;2024-01-30T11:12:22;18.42;;;9.02;;
53903;SDS011;39812;52.430;16.936;2024-01-30T11:14:49;20.15;;;9.35;;
53903;SDS011;39812;52.430;16.936;2024-01-30T11:17:27;20.85;;;8.77;;
53903;SDS011;39812;52.430;16.936;2024-01-30T11:19:53;16.83;;;8.60;;
53903;SDS011;39812;52.430;16.936;2024-01-30T11:22:22;20.55;;;9.48;;
53903;SDS011;39812;52.430;16.936;2024-01-30T11:24:47;18.65;;;8.82;;
53903;SDS011;39812;52.430;16.936;2024-01-30T11:27:13;18.65;;;7.88;;
53903;SDS011;39812;52.430;16.936;2024-01-30T11:29:40;20.88;;;9.23;;
53903;SDS011;39812;52.430;16.936;2024-01-30T11:32:06;17.55;;;8.93;;
53903;SDS011;39812;52.430;16.936;2024-01-30T11:34:32;23.63;;;9.27;;
53903;SDS011;39812;52.430;16.936;2024-01-30T11:37:03;22.52;;;9.15;;
53903;SDS011;39812;52.430;16.936;2024-01-30T11:39:31;20.17;;;9.27;;
53903;SDS011;39812;52.430;16.936;2024-01-30T11:41:57;15.23;;;7.95;;
53903;SDS011;39812;52.430;16.936;2024-01-30T11:44:24;18.52;;;9.57;;
53903;SDS011;39812;52.430;16.936;2024-01-30T11:46:51;18.50;;;8.45;;
53903;SDS011;39812;52.430;16.936;2024-01-30T11:49:18;19.67;;;9.15;;
53903;SDS011;39812;52.430;16.936;2024-01-30T11:51:47;16.88;;;8.43;;
53903;SDS011;39812;52.430;16.936;2024-01-30T11:54:14;17.50;;;7.22;;
53903;SDS011;39812;52.430;16.936;2024-01-30T11:56:41;18.05;;;7.97;;
53903;SDS011;39812;52.430;16.936;2024-01-30T11:59:07;17.92;;;7.68;;
53903;SDS011;39812;52.430;16.936;2024-01-30T12:01:33;19.15;;;8.45;;
53903;SDS011;39812;52.430;16.936;2024-01-30T12:03:59;20.27;;;8.27;;
53903;SDS011;39812;52.430;16.936;2024-01-30T12:06:24;16.33;;;7.68;;
53903;SDS011;39812;52.430;16.936;2024-01-30T12:09:00;20.13;;;9.02;;
53903;SDS011;39812;52.430;16.936;2024-01-30T12:11:29;18.52;;;8.50;;
53903;SDS011;39812;52.430;16.936;2024-01-30T12:13:55;15.07;;;8.32;;
53903;SDS011;39812;52.430;16.936;2024-01-30T12:16:21;15.60;;;8.43;;
53903;SDS011;39812;52.430;16.936;2024-01-30T12:18:47;21.00;;;16.23;;
53903;SDS011;39812;52.430;16.936;2024-01-30T12:21:16;19.63;;;9.13;;
53903;SDS011;39812;52.430;16.936;2024-01-30T12:23:42;16.13;;;7.90;;
53903;SDS011;39812;52.430;16.936;2024-01-30T12:26:08;18.33;;;8.25;;
53903;SDS011;39812;52.430;16.936;2024-01-30T12:28:33;19.30;;;8.60;;
53903;SDS011;39812;52.430;16.936;2024-01-30T12:31:02;17.50;;;8.70;;
53903;SDS011;39812;52.430;16.936;2024-01-30T12:33:29;15.77;;;8.45;;
53903;SDS011;39812;52.430;16.936;2024-01-30T12:35:55;19.65;;;8.98;;
53903;SDS011;39812;52.430;16.936;2024-01-30T12:38:24;18.13;;;8.38;;
53903;SDS011;39812;52.430;16.936;2024-01-30T12:40:54;18.55;;;8.63;;
53903;SDS011;39812;52.430;16.936;2024-01-30T12:43:20;18.15;;;8.60;;
53903;SDS011;39812;52.430;16.936;2024-01-30T12:45:47;19.65;;;8.77;;
53903;SDS011;39812;52.430;16.936;2024-01-30T12:48:12;21.02;;;9.25;;
53903;SDS011;39812;52.430;16.936;2024-01-30T12:50:38;18.30;;;8.05;;
53903;SDS011;39812;52.430;16.936;2024-01-30T12:53:03;17.83;;;8.38;;
53903;SDS011;39812;52.430;16.936;2024-01-30T12:55:30;16.58;;;8.50;;
53903;SDS011;39812;52.430;16.936;2024-01-30T12:57:56;20.42;;;8.68;;
53903;SDS011;39812;52.430;16.936;2024-01-30T13:00:22;13.63;;;7.90;;
53903;SDS011;39812;52.430;16.936;2024-01-30T13:02:47;13.85;;;7.68;;
53903;SDS011;39812;52.430;16.936;2024-01-30T13:05:13;19.70;;;8.57;;
53903;SDS011;39812;52.430;16.936;2024-01-30T13:07:39;13.35;;;8.07;;
53903;SDS011;39812;52.430;16.936;2024-01-30T13:10:05;18.52;;;8.93;;
53903;SDS011;39812;52.430;16.936;2024-01-30T13:12:31;21.27;;;8.57;;
53903;SDS011;39812;52.430;16.936;2024-01-30T13:15:00;19.40;;;9.48;;
53903;SDS011;39812;52.430;16.936;2024-01-30T13:17:26;19.17;;;8.98;;
53903;SDS011;39812;52.430;16.936;2024-01-30T13:19:52;17.67;;;9.10;;
53903;SDS011;39812;52.430;16.936;2024-01-30T13:22:19;19.45;;;8.82;;
53903;SDS011;39812;52.430;16.936;2024-01-30T13:24:46;17.52;;;8.68;;
53903;SDS011;39812;52.430;16.936;2024-01-30T13:27:12;18.33;;;9.15;;
53903;SDS011;39812;52.430;16.936;2024-01-30T13:29:38;17.48;;;8.65;;
53903;SDS011;39812;52.430;16.936;2024-01-30T13:32:04;20.27;;;9.63;;
53903;SDS011;39812;52.430;16.936;2024-01-30T13:34:29;18.55;;;9.85;;
53903;SDS011;39812;52.430;16.936;2024-01-30T13:36:55;20.58;;;9.82;;
53903;SDS011;39812;52.430;16.936;2024-01-30T13:39:21;18.95;;;9.23;;
53903;SDS011;39812;52.430;16.936;2024-01-30T13:41:48;18.85;;;8.88;;
53903;SDS011;39812;52.430;16.936;2024-01-30T13:44:15;18.58;;;9.45;;
53903;SDS011;39812;52.430;16.936;2024-01-30T13:46:41;20.42;;;9.45;;
53903;SDS011;39812;52.430;16.936;2024-01-30T13:49:07;18.30;;;9.15;;
53903;SDS011;39812;52.430;16.936;2024-01-30T13:51:33;19.60;;;9.82;;
53903;SDS011;39812;52.430;16.936;2024-01-30T13:53:58;18.80;;;9.55;;
53903;SDS011;39812;52.430;16.936;2024-01-30T13:56:24;16.75;;;8.98;;
53903;SDS011;39812;52.430;16.936;2024-01-30T13:58:51;21.75;;;9.52;;
53903;SDS011;39812;52.430;16.936;2024-01-30T14:01:17;20.60;;;9.93;;
53903;SDS011;39812;52.430;16.936;2024-01-30T14:03:43;22.00;;;10.55;;
53903;SDS011;39812;52.430;16.936;2024-01-30T14:06:08;21.50;;;9.63;;
53903;SDS011;39812;52.430;16.936;2024-01-30T14:08:34;20.35;;;9.40;;
53903;SDS011;39812;52.430;16.936;2024-01-30T14:11:00;18.85;;;9.77;;
53903;SDS011;39812;52.430;16.936;2024-01-30T14:13:26;18.42;;;9.63;;